sensor_id;sensor_type;location;lat;lon;timestamp;P1;durP1;ratioP1;P2;durP2;ratioP2
28988;SDS011;16089;59.952;10.818;2023-11-22T00:01:03;21.58;;;10.20;;
28988;SDS011;16089;59.952;10.818;2023-11-22T00:03:31;21.05;;;10.43;;
28988;SDS011;16089;59.952;10.818;2023-11-22T00:05:57;22.45;;;10.95;;
28988;SDS011;16089;59.952;10.818;2023-11-22T00:08:24;20.60;;;10.23;;
28988;SDS011;16089;59.952;10.818;2023-11-22T00:10:50;21.90;;;11.32;;
28988;SDS011;16089;59.952;10.818;2023-11-22T00:13:16;20.55;;;10.07;;
28988;SDS011;16089;59.952;10.818;2023-11-22T00:15:43;22.95;;;10.68;;
28988;SDS011;16089;59.952;10.818;2023-11-22T00:18:09;22.15;;;11.02;;
28988;SDS011;16089;59.952;10.818;2023-11-22T00:20:37;21.13;;;10.10;;
28988;SDS011;16089;59.952;10.818;2023-11-22T00:23:04;24.30;;;10.90;;
28988;SDS011;16089;59.952;10.818;2023-11-22T00:25:31;23.58;;;9.93;;
28988;SDS011;16089;59.952;10.818;2023-11-22T00:27:57;24.63;;;10.75;;
28988;SDS011;16089;59.952;10.818;2023-11-22T00:30:24;20.25;;;9.85;;
28988;SDS011;16089;59.952;10.818;2023-11-22T00:32:50;21.40;;;9.98;;
28988;SDS011;16089;59.952;10.818;2023-11-22T00:35:17;20.70;;;9.68;;
28988;SDS011;16089;59.952;10.818;2023-11-22T00:37:44;21.58;;;10.38;;
28988;SDS011;16089;59.952;10.818;2023-11-22T00:40:11;20.27;;;9.43;;
28988;SDS011;16089;59.952;10.818;2023-11-22T00:42:38;18.00;;;8.80;;
28988;SDS011;16089;59.952;10.818;2023-11-22T00:45:07;18.55;;;9.18;;
28988;SDS011;16089;59.952;10.818;2023-11-22T00:47:34;20.15;;;10.10;;
28988;SDS011;16089;59.952;10.818;2023-11-22T00:50:01;17.92;;;9.00;;
28988;SDS011;16089;59.952;10.818;2023-11-22T00:52:29;20.35;;;9.43;;
28988;SDS011;16089;59.952;10.818;2023-11-22T00:54:57;17.65;;;7.68;;
28988;SDS011;16089;59.952;10.818;2023-11-22T00:57:23;18.83;;;9.05;;
28988;SDS011;16089;59.952;10.818;2023-11-22T00:59:51;18.27;;;9.23;;
28988;SDS011;16089;59.952;10.818;2023-11-22T01:02:18;19.90;;;8.73;;
28988;SDS011;16089;59.952;10.818;2023-11-22T01:04:45;20.65;;;8.88;;
28988;SDS011;16089;59.952;10.818;2023-11-22T01:07:12;22.65;;;10.23;;
28988;SDS011;16089;59.952;10.818;2023-11-22T01:09:38;24.73;;;10.10;;
28988;SDS011;16089;59.952;10.818;2023-11-22T01:12:06;20.40;;;9.82;;
28988;SDS011;16089;59.952;10.818;2023-11-22T01:14:34;21.67;;;10.30;;
28988;SDS011;16089;59.952;10.818;2023-11-22T01:17:00;22.30;;;10.23;;
28988;SDS011;16089;59.952;10.818;2023-11-22T01:19:27;20.02;;;9.57;;
28988;SDS011;16089;59.952;10.818;2023-11-22T01:21:53;23.55;;;10.70;;
28988;SDS011;16089;59.952;10.818;2023-11-22T01:24:19;23.85;;;11.57;;
28988;SDS011;16089;59.952;10.818;2023-11-22T01:26:46;24.25;;;11.00;;
28988;SDS011;16089;59.952;10.818;2023-11-22T01:29:13;26.05;;;12.25;;
28988;SDS011;16089;59.952;10.818;2023-11-22T01:31:40;26.85;;;12.43;;
28988;SDS011;16089;59.952;10.818;2023-11-22T01:34:07;29.65;;;13.20;;
28988;SDS011;16089;59.952;10.818;2023-11-22T01:36:33;30.63;;;13.05;;
28988;SDS011;16089;59.952;10.818;2023-11-22T01:38:59;30.80;;;14.25;;
28988;SDS011;16089;59.952;10.818;2023-11-22T01:41:28;28.70;;;13.32;;
28988;SDS011;16089;59.952;10.818;2023-11-22T01:43:55;28.63;;;14.00;;
28988;SDS011;16089;59.952;10.818;2023-11-22T01:46:23;33.22;;;13.77;;
28988;SDS011;16089;59.952;10.818;2023-11-22T01:48:50;31.13;;;14.02;;
28988;SDS011;16089;59.952;10.818;2023-11-22T01:51:18;31.88;;;14.63;;
28988;SDS011;16089;59.952;10.818;2023-11-22T01:53:45;34.83;;;15.65;;
28988;SDS011;16089;59.952;10.818;2023-11-22T01:56:12;33.13;;;15.77;;
28988;SDS011;16089;59.952;10.818;2023-11-22T01:58:38;33.85;;;14.77;;
28988;SDS011;16089;59.952;10.818;2023-11-22T02:01:05;33.20;;;15.40;;
28988;SDS011;16089;59.952;10.818;2023-11-22T02:03:33;29.90;;;13.05;;
28988;SDS011;16089;59.952;10.818;2023-11-22T02:05:59;32.38;;;14.60;;
28988;SDS011;16089;59.952;10.818;2023-11-22T02:08:26;32.67;;;14.90;;
28988;SDS011;16089;59.952;10.818;2023-11-22T02:10:59;32.63;;;15.38;;
28988;SDS011;16089;59.952;10.818;2023-11-22T02:13:26;30.67;;;14.68;;
28988;SDS011;16089;59.952;10.818;2023-11-22T02:15:53;28.30;;;13.68;;
28988;SDS011;16089;59.952;10.818;2023-11-22T02:18:21;30.23;;;13.88;;
28988;SDS011;16089;59.952;10.818;2023-11-22T02:20:49;28.30;;;13.50;;
28988;SDS011;16089;59.952;10.818;2023-11-22T02:23:17;30.30;;;13.25;;
28988;SDS011;16089;59.952;10.818;2023-11-22T02:25:44;28.73;;;13.38;;
28988;SDS011;16089;59.952;10.818;2023-11-22T02:28:10;30.80;;;14.15;;
28988;SDS011;16089;59.952;10.818;2023-11-22T02:30:37;22.92;;;12.18;;
28988;SDS011;16089;59.952;10.818;2023-11-22T02:33:03;30.17;;;13.35;;
28988;SDS011;16089;59.952;10.818;2023-11-22T02:35:30;31.17;;;13.80;;
28988;SDS011;16089;59.952;10.818;2023-11-22T02:37:56;26.15;;;12.18;;
28988;SDS011;16089;59.952;10.818;2023-11-22T02:40:24;23.73;;;10.60;;
28988;SDS011;16089;59.952;10.818;2023-11-22T02:42:51;22.42;;;11.02;;
28988;SDS011;16089;59.952;10.818;2023-11-22T02:45:18;20.35;;;10.50;;
28988;SDS011;16089;59.952;10.818;2023-11-22T02:47:45;22.42;;;11.65;;
28988;SDS011;16089;59.952;10.818;2023-11-22T02:50:11;19.83;;;10.23;;
28988;SDS011;16089;59.952;10.818;2023-11-22T02:52:38;19.27;;;10.00;;
28988;SDS011;16089;59.952;10.818;2023-11-22T02:55:05;20.65;;;10.43;;
28988;SDS011;16089;59.952;10.818;2023-11-22T02:57:33;18.05;;;9.25;;
28988;SDS011;16089;59.952;10.818;2023-11-22T02:59:59;18.05;;;9.43;;
28988;SDS011;16089;59.952;10.818;2023-11-22T03:02:25;19.52;;;9.90;;
28988;SDS011;16089;59.952;10.818;2023-11-22T03:04:52;21.98;;;9.50;;
28988;SDS011;16089;59.952;10.818;2023-11-22T03:07:18;20.58;;;9.88;;
28988;SDS011;16089;59.952;10.818;2023-11-22T03:09:45;17.83;;;9.10;;
28988;SDS011;16089;59.952;10.818;2023-11-22T03:12:12;23.48;;;10.63;;
28988;SDS011;16089;59.952;10.818;2023-11-22T03:14:41;17.23;;;9.10;;
28988;SDS011;16089;59.952;10.818;2023-11-22T03:17:07;19.27;;;9.68;;
28988;SDS011;16089;59.952;10.818;2023-11-22T03:19:34;17.85;;;8.93;;
28988;SDS011;16089;59.952;10.818;2023-11-22T03:22:00;18.70;;;8.65;;
28988;SDS011;16089;59.952;10.818;2023-11-22T03:24:28;19.20;;;9.15;;
28988;SDS011;16089;59.952;10.818;2023-11-22T03:26:54;16.20;;;7.93;;
28988;SDS011;16089;59.952;10.818;2023-11-22T03:29:23;17.20;;;8.07;;
28988;SDS011;16089;59.952;10.818;2023-11-22T03:31:51;20.38;;;8.90;;
28988;SDS011;16089;59.952;10.818;2023-11-22T03:34:18;15.85;;;8.07;;
28988;SDS011;16089;59.952;10.818;2023-11-22T03:36:44;17.88;;;8.55;;
28988;SDS011;16089;59.952;10.818;2023-11-22T03:39:11;16.35;;;8.18;;
28988;SDS011;16089;59.952;10.818;2023-11-22T03:41:39;18.60;;;8.55;;
28988;SDS011;16089;59.952;10.818;2023-11-22T03:44:06;17.92;;;8.50;;
28988;SDS011;16089;59.952;10.818;2023-11-22T03:46:34;16.27;;;7.47;;
28988;SDS011;16089;59.952;10.818;2023-11-22T03:49:02;14.93;;;7.20;;
28988;SDS011;16089;59.952;10.818;2023-11-22T03:51:29;13.85;;;6.75;;
28988;SDS011;16089;59.952;10.818;2023-11-22T03:53:55;11.80;;;6.28;;
28988;SDS011;16089;59.952;10.818;2023-11-22T03:56:22;11.00;;;6.00;;
28988;SDS011;16089;59.952;10.818;2023-11-22T03:58:48;13.60;;;6.10;;
28988;SDS011;16089;59.952;10.818;2023-11-22T04:01:14;14.27;;;6.75;;
28988;SDS011;16089;59.952;10.818;2023-11-22T04:03:41;14.90;;;6.65;;
28988;SDS011;16089;59.952;10.818;2023-11-22T04:06:09;13.07;;;6.38;;
28988;SDS011;16089;59.952;10.818;2023-11-22T04:08:35;13.18;;;6.40;;
28988;SDS011;16089;59.952;10.818;2023-11-22T04:11:03;12.82;;;6.80;;
28988;SDS011;16089;59.952;10.818;2023-11-22T04:13:30;14.63;;;6.97;;
28988;SDS011;16089;59.952;10.818;2023-11-22T04:15:57;15.65;;;7.65;;
28988;SDS011;16089;59.952;10.818;2023-11-22T04:18:23;15.68;;;6.93;;
28988;SDS011;16089;59.952;10.818;2023-11-22T04:20:50;13.75;;;6.97;;
28988;SDS011;16089;59.952;10.818;2023-11-22T04:23:18;15.18;;;7.53;;
28988;SDS011;16089;59.952;10.818;2023-11-22T04:25:45;13.65;;;6.55;;
28988;SDS011;16089;59.952;10.818;2023-11-22T04:28:11;11.55;;;6.35;;
28988;SDS011;16089;59.952;10.818;2023-11-22T04:30:40;14.32;;;6.97;;
28988;SDS011;16089;59.952;10.818;2023-11-22T04:33:06;13.50;;;6.68;;
28988;SDS011;16089;59.952;10.818;2023-11-22T04:35:33;14.15;;;7.50;;
28988;SDS011;16089;59.952;10.818;2023-11-22T04:38:02;13.65;;;6.95;;
28988;SDS011;16089;59.952;10.818;2023-11-22T04:40:30;16.25;;;7.22;;
28988;SDS011;16089;59.952;10.818;2023-11-22T04:42:56;13.85;;;6.90;;
28988;SDS011;16089;59.952;10.818;2023-11-22T04:45:22;13.85;;;6.68;;
28988;SDS011;16089;59.952;10.818;2023-11-22T04:47:49;13.90;;;6.53;;
28988;SDS011;16089;59.952;10.818;2023-11-22T04:50:15;12.45;;;6.50;;
28988;SDS011;16089;59.952;10.818;2023-11-22T04:52:42;12.40;;;6.50;;
28988;SDS011;16089;59.952;10.818;2023-11-22T04:55:09;13.65;;;7.10;;
28988;SDS011;16089;59.952;10.818;2023-11-22T04:57:37;13.82;;;6.45;;
28988;SDS011;16089;59.952;10.818;2023-11-22T05:00:05;14.38;;;7.28;;
28988;SDS011;16089;59.952;10.818;2023-11-22T05:02:32;14.55;;;6.95;;
28988;SDS011;16089;59.952;10.818;2023-11-22T05:04:58;14.40;;;6.53;;
28988;SDS011;16089;59.952;10.818;2023-11-22T05:07:25;14.90;;;7.20;;
28988;SDS011;16089;59.952;10.818;2023-11-22T05:09:51;13.82;;;7.13;;
28988;SDS011;16089;59.952;10.818;2023-11-22T05:12:18;16.02;;;7.70;;
28988;SDS011;16089;59.952;10.818;2023-11-22T05:14:45;14.98;;;7.20;;
28988;SDS011;16089;59.952;10.818;2023-11-22T05:17:12;15.20;;;7.28;;
28988;SDS011;16089;59.952;10.818;2023-11-22T05:19:38;13.88;;;7.05;;
28988;SDS011;16089;59.952;10.818;2023-11-22T05:22:05;11.82;;;6.72;;
28988;SDS011;16089;59.952;10.818;2023-11-22T05:24:31;13.75;;;7.60;;
28988;SDS011;16089;59.952;10.818;2023-11-22T05:27:00;13.35;;;6.88;;
28988;SDS011;16089;59.952;10.818;2023-11-22T05:29:26;13.90;;;7.63;;
28988;SDS011;16089;59.952;10.818;2023-11-22T05:31:54;14.15;;;7.53;;
28988;SDS011;16089;59.952;10.818;2023-11-22T05:34:21;20.25;;;8.38;;
28988;SDS011;16089;59.952;10.818;2023-11-22T05:36:47;14.68;;;7.57;;
28988;SDS011;16089;59.952;10.818;2023-11-22T05:39:14;17.15;;;8.23;;
28988;SDS011;16089;59.952;10.818;2023-11-22T05:41:42;17.35;;;8.20;;
28988;SDS011;16089;59.952;10.818;2023-11-22T05:44:09;17.55;;;7.90;;
28988;SDS011;16089;59.952;10.818;2023-11-22T05:46:35;16.10;;;7.88;;
28988;SDS011;16089;59.952;10.818;2023-11-22T05:49:05;14.52;;;7.20;;
28988;SDS011;16089;59.952;10.818;2023-11-22T05:51:31;16.40;;;8.05;;
28988;SDS011;16089;59.952;10.818;2023-11-22T05:53:58;13.55;;;7.22;;
28988;SDS011;16089;59.952;10.818;2023-11-22T05:56:25;14.20;;;7.55;;
28988;SDS011;16089;59.952;10.818;2023-11-22T05:58:52;15.15;;;8.02;;
28988;SDS011;16089;59.952;10.818;2023-11-22T06:01:18;15.27;;;7.82;;
28988;SDS011;16089;59.952;10.818;2023-11-22T06:03:44;16.83;;;7.75;;
28988;SDS011;16089;59.952;10.818;2023-11-22T06:06:13;16.45;;;8.40;;
28988;SDS011;16089;59.952;10.818;2023-11-22T06:08:40;15.48;;;8.02;;
28988;SDS011;16089;59.952;10.818;2023-11-22T06:11:06;18.35;;;8.02;;
28988;SDS011;16089;59.952;10.818;2023-11-22T06:13:32;15.50;;;8.30;;
28988;SDS011;16089;59.952;10.818;2023-11-22T06:15:59;15.63;;;7.60;;
28988;SDS011;16089;59.952;10.818;2023-11-22T06:18:25;19.40;;;8.85;;
28988;SDS011;16089;59.952;10.818;2023-11-22T06:20:55;15.20;;;7.35;;
28988;SDS011;16089;59.952;10.818;2023-11-22T06:23:23;15.40;;;7.72;;
28988;SDS011;16089;59.952;10.818;2023-11-22T06:25:49;17.98;;;8.93;;
28988;SDS011;16089;59.952;10.818;2023-11-22T06:28:15;13.68;;;7.28;;
28988;SDS011;16089;59.952;10.818;2023-11-22T06:30:43;19.70;;;8.80;;
28988;SDS011;16089;59.952;10.818;2023-11-22T06:33:09;16.90;;;9.32;;
28988;SDS011;16089;59.952;10.818;2023-11-22T06:35:35;16.33;;;8.27;;
28988;SDS011;16089;59.952;10.818;2023-11-22T06:38:02;21.00;;;9.27;;
28988;SDS011;16089;59.952;10.818;2023-11-22T06:40:30;19.38;;;9.02;;
28988;SDS011;16089;59.952;10.818;2023-11-22T06:42:56;19.23;;;9.20;;
28988;SDS011;16089;59.952;10.818;2023-11-22T06:45:23;18.40;;;9.52;;
28988;SDS011;16089;59.952;10.818;2023-11-22T06:47:49;24.08;;;10.43;;
28988;SDS011;16089;59.952;10.818;2023-11-22T06:50:16;19.20;;;10.63;;
28988;SDS011;16089;59.952;10.818;2023-11-22T06:52:42;16.48;;;9.23;;
28988;SDS011;16089;59.952;10.818;2023-11-22T06:55:09;18.58;;;9.80;;
28988;SDS011;16089;59.952;10.818;2023-11-22T06:57:37;19.10;;;9.25;;
28988;SDS011;16089;59.952;10.818;2023-11-22T07:00:04;21.02;;;10.30;;
28988;SDS011;16089;59.952;10.818;2023-11-22T07:02:31;22.20;;;10.63;;
28988;SDS011;16089;59.952;10.818;2023-11-22T07:04:56;18.30;;;9.63;;
28988;SDS011;16089;59.952;10.818;2023-11-22T07:07:24;23.30;;;11.00;;
28988;SDS011;16089;59.952;10.818;2023-11-22T07:09:50;20.55;;;9.68;;
28988;SDS011;16089;59.952;10.818;2023-11-22T07:12:17;22.83;;;9.68;;
28988;SDS011;16089;59.952;10.818;2023-11-22T07:14:45;23.90;;;9.85;;
28988;SDS011;16089;59.952;10.818;2023-11-22T07:17:13;22.55;;;11.32;;
28988;SDS011;16089;59.952;10.818;2023-11-22T07:19:40;21.90;;;10.80;;
28988;SDS011;16089;59.952;10.818;2023-11-22T07:22:11;20.65;;;9.63;;
28988;SDS011;16089;59.952;10.818;2023-11-22T07:24:41;25.02;;;10.13;;
28988;SDS011;16089;59.952;10.818;2023-11-22T07:27:09;19.42;;;9.35;;
28988;SDS011;16089;59.952;10.818;2023-11-22T07:29:37;22.15;;;11.00;;
28988;SDS011;16089;59.952;10.818;2023-11-22T07:32:05;21.63;;;9.88;;
28988;SDS011;16089;59.952;10.818;2023-11-22T07:34:32;25.20;;;10.73;;
28988;SDS011;16089;59.952;10.818;2023-11-22T07:36:58;22.85;;;9.68;;
28988;SDS011;16089;59.952;10.818;2023-11-22T07:39:25;18.33;;;9.30;;
28988;SDS011;16089;59.952;10.818;2023-11-22T07:41:52;19.50;;;9.35;;
28988;SDS011;16089;59.952;10.818;2023-11-22T07:44:19;24.77;;;10.98;;
28988;SDS011;16089;59.952;10.818;2023-11-22T07:46:46;24.02;;;10.05;;
28988;SDS011;16089;59.952;10.818;2023-11-22T07:49:14;21.33;;;10.57;;
28988;SDS011;16089;59.952;10.818;2023-11-22T07:51:40;23.95;;;10.57;;
28988;SDS011;16089;59.952;10.818;2023-11-22T07:54:07;20.20;;;9.05;;
28988;SDS011;16089;59.952;10.818;2023-11-22T07:56:34;21.05;;;9.90;;
28988;SDS011;16089;59.952;10.818;2023-11-22T07:59:02;22.55;;;9.95;;
28988;SDS011;16089;59.952;10.818;2023-11-22T08:01:29;18.98;;;9.82;;
28988;SDS011;16089;59.952;10.818;2023-11-22T08:03:57;28.75;;;10.45;;
28988;SDS011;16089;59.952;10.818;2023-11-22T08:06:24;22.10;;;8.88;;
28988;SDS011;16089;59.952;10.818;2023-11-22T08:08:52;21.38;;;10.00;;
28988;SDS011;16089;59.952;10.818;2023-11-22T08:11:18;20.20;;;9.70;;
28988;SDS011;16089;59.952;10.818;2023-11-22T08:13:46;25.38;;;10.27;;
28988;SDS011;16089;59.952;10.818;2023-11-22T08:16:12;25.92;;;9.95;;
28988;SDS011;16089;59.952;10.818;2023-11-22T08:18:39;20.48;;;9.75;;
28988;SDS011;16089;59.952;10.818;2023-11-22T08:21:07;22.13;;;9.23;;
28988;SDS011;16089;59.952;10.818;2023-11-22T08:23:36;22.13;;;9.55;;
28988;SDS011;16089;59.952;10.818;2023-11-22T08:26:02;24.17;;;10.27;;
28988;SDS011;16089;59.952;10.818;2023-11-22T08:28:29;21.00;;;10.30;;
28988;SDS011;16089;59.952;10.818;2023-11-22T08:30:56;18.80;;;8.80;;
28988;SDS011;16089;59.952;10.818;2023-11-22T08:33:22;18.70;;;8.98;;
28988;SDS011;16089;59.952;10.818;2023-11-22T08:35:48;23.25;;;9.80;;
28988;SDS011;16089;59.952;10.818;2023-11-22T08:38:23;23.27;;;9.23;;
28988;SDS011;16089;59.952;10.818;2023-11-22T08:40:51;18.58;;;8.65;;
28988;SDS011;16089;59.952;10.818;2023-11-22T08:43:17;22.33;;;9.40;;
28988;SDS011;16089;59.952;10.818;2023-11-22T08:45:48;19.42;;;9.13;;
28988;SDS011;16089;59.952;10.818;2023-11-22T08:48:14;22.48;;;8.35;;
28988;SDS011;16089;59.952;10.818;2023-11-22T08:50:42;23.45;;;8.63;;
28988;SDS011;16089;59.952;10.818;2023-11-22T08:53:09;20.20;;;8.57;;
28988;SDS011;16089;59.952;10.818;2023-11-22T08:55:36;20.88;;;8.35;;
28988;SDS011;16089;59.952;10.818;2023-11-22T08:58:03;17.50;;;8.75;;
28988;SDS011;16089;59.952;10.818;2023-11-22T09:00:30;17.92;;;7.57;;
28988;SDS011;16089;59.952;10.818;2023-11-22T09:02:57;20.98;;;7.60;;
28988;SDS011;16089;59.952;10.818;2023-11-22T09:05:23;17.63;;;7.35;;
28988;SDS011;16089;59.952;10.818;2023-11-22T09:07:50;17.80;;;6.55;;
28988;SDS011;16089;59.952;10.818;2023-11-22T09:10:17;15.98;;;7.10;;
28988;SDS011;16089;59.952;10.818;2023-11-22T09:12:46;14.88;;;6.60;;
28988;SDS011;16089;59.952;10.818;2023-11-22T09:15:15;15.95;;;6.53;;
28988;SDS011;16089;59.952;10.818;2023-11-22T09:17:43;15.15;;;6.30;;
28988;SDS011;16089;59.952;10.818;2023-11-22T09:20:11;14.85;;;5.80;;
28988;SDS011;16089;59.952;10.818;2023-11-22T09:22:41;13.98;;;6.25;;
28988;SDS011;16089;59.952;10.818;2023-11-22T09:27:38;12.77;;;5.65;;
28988;SDS011;16089;59.952;10.818;2023-11-22T09:30:06;12.45;;;5.63;;
28988;SDS011;16089;59.952;10.818;2023-11-22T09:32:37;13.23;;;4.97;;
28988;SDS011;16089;59.952;10.818;2023-11-22T09:35:04;10.38;;;4.53;;
28988;SDS011;16089;59.952;10.818;2023-11-22T09:37:30;10.88;;;4.55;;
28988;SDS011;16089;59.952;10.818;2023-11-22T09:39:58;11.90;;;4.20;;
28988;SDS011;16089;59.952;10.818;2023-11-22T09:42:24;11.00;;;4.20;;
28988;SDS011;16089;59.952;10.818;2023-11-22T09:44:52;12.88;;;4.45;;
28988;SDS011;16089;59.952;10.818;2023-11-22T09:47:19;12.00;;;4.28;;
28988;SDS011;16089;59.952;10.818;2023-11-22T09:49:48;9.50;;;4.10;;
28988;SDS011;16089;59.952;10.818;2023-11-22T09:52:17;11.60;;;3.75;;
28988;SDS011;16089;59.952;10.818;2023-11-22T09:54:45;12.02;;;3.92;;
28988;SDS011;16089;59.952;10.818;2023-11-22T09:57:14;7.32;;;3.35;;
28988;SDS011;16089;59.952;10.818;2023-11-22T09:59:42;9.48;;;4.22;;
28988;SDS011;16089;59.952;10.818;2023-11-22T10:02:09;8.20;;;3.60;;
28988;SDS011;16089;59.952;10.818;2023-11-22T10:04:35;13.18;;;3.55;;
28988;SDS011;16089;59.952;10.818;2023-11-22T10:07:04;11.57;;;3.38;;
28988;SDS011;16089;59.952;10.818;2023-11-22T10:09:31;9.35;;;3.78;;
28988;SDS011;16089;59.952;10.818;2023-11-22T10:11:57;10.65;;;4.20;;
28988;SDS011;16089;59.952;10.818;2023-11-22T10:14:24;13.25;;;4.40;;
28988;SDS011;16089;59.952;10.818;2023-11-22T10:16:57;12.80;;;4.47;;
28988;SDS011;16089;59.952;10.818;2023-11-22T10:19:24;12.30;;;3.67;;
28988;SDS011;16089;59.952;10.818;2023-11-22T10:21:59;10.52;;;4.30;;
28988;SDS011;16089;59.952;10.818;2023-11-22T10:24:31;9.75;;;3.78;;
28988;SDS011;16089;59.952;10.818;2023-11-22T10:26:58;11.88;;;3.88;;
28988;SDS011;16089;59.952;10.818;2023-11-22T10:29:24;9.57;;;3.70;;
28988;SDS011;16089;59.952;10.818;2023-11-22T10:31:52;7.68;;;3.63;;
28988;SDS011;16089;59.952;10.818;2023-11-22T10:34:18;8.65;;;3.42;;
28988;SDS011;16089;59.952;10.818;2023-11-22T10:36:45;11.02;;;3.65;;
28988;SDS011;16089;59.952;10.818;2023-11-22T10:39:12;13.68;;;3.67;;
28988;SDS011;16089;59.952;10.818;2023-11-22T10:41:43;15.73;;;4.15;;
28988;SDS011;16089;59.952;10.818;2023-11-22T10:44:11;10.15;;;3.30;;
28988;SDS011;16089;59.952;10.818;2023-11-22T10:46:38;10.90;;;3.58;;
28988;SDS011;16089;59.952;10.818;2023-11-22T10:49:05;12.10;;;3.22;;
28988;SDS011;16089;59.952;10.818;2023-11-22T10:51:32;12.50;;;3.85;;
28988;SDS011;16089;59.952;10.818;2023-11-22T10:53:59;10.68;;;3.30;;
28988;SDS011;16089;59.952;10.818;2023-11-22T10:56:26;7.18;;;2.75;;
28988;SDS011;16089;59.952;10.818;2023-11-22T10:58:55;11.77;;;4.25;;
28988;SDS011;16089;59.952;10.818;2023-11-22T11:01:24;8.90;;;2.67;;
28988;SDS011;16089;59.952;10.818;2023-11-22T11:03:54;9.98;;;2.67;;
28988;SDS011;16089;59.952;10.818;2023-11-22T11:06:23;10.10;;;3.08;;
28988;SDS011;16089;59.952;10.818;2023-11-22T11:08:52;9.77;;;2.53;;
28988;SDS011;16089;59.952;10.818;2023-11-22T11:11:19;7.57;;;2.50;;
28988;SDS011;16089;59.952;10.818;2023-11-22T11:13:46;6.20;;;2.30;;
28988;SDS011;16089;59.952;10.818;2023-11-22T11:16:14;6.30;;;2.08;;
28988;SDS011;16089;59.952;10.818;2023-11-22T11:18:41;6.65;;;2.63;;
28988;SDS011;16089;59.952;10.818;2023-11-22T11:21:08;8.13;;;2.42;;
28988;SDS011;16089;59.952;10.818;2023-11-22T11:23:37;8.05;;;2.22;;
28988;SDS011;16089;59.952;10.818;2023-11-22T11:26:08;9.27;;;2.13;;
28988;SDS011;16089;59.952;10.818;2023-11-22T11:28:41;9.95;;;2.22;;
28988;SDS011;16089;59.952;10.818;2023-11-22T11:31:08;9.05;;;2.10;;
28988;SDS011;16089;59.952;10.818;2023-11-22T11:33:52;6.85;;;2.20;;
28988;SDS011;16089;59.952;10.818;2023-11-22T11:36:21;9.43;;;1.90;;
28988;SDS011;16089;59.952;10.818;2023-11-22T11:38:47;9.32;;;1.90;;
28988;SDS011;16089;59.952;10.818;2023-11-22T11:41:14;10.93;;;2.25;;
28988;SDS011;16089;59.952;10.818;2023-11-22T11:43:41;13.20;;;1.88;;
28988;SDS011;16089;59.952;10.818;2023-11-22T11:46:09;10.70;;;2.28;;
28988;SDS011;16089;59.952;10.818;2023-11-22T11:48:37;5.05;;;1.38;;
28988;SDS011;16089;59.952;10.818;2023-11-22T11:51:03;5.35;;;1.15;;
28988;SDS011;16089;59.952;10.818;2023-11-22T11:53:32;5.47;;;1.40;;
28988;SDS011;16089;59.952;10.818;2023-11-22T11:55:58;6.88;;;1.35;;
28988;SDS011;16089;59.952;10.818;2023-11-22T11:58:25;4.47;;;1.40;;
28988;SDS011;16089;59.952;10.818;2023-11-22T12:00:51;8.55;;;1.55;;
28988;SDS011;16089;59.952;10.818;2023-11-22T12:03:19;7.72;;;1.23;;
28988;SDS011;16089;59.952;10.818;2023-11-22T12:05:47;10.43;;;1.58;;
28988;SDS011;16089;59.952;10.818;2023-11-22T12:08:14;8.15;;;1.65;;
28988;SDS011;16089;59.952;10.818;2023-11-22T12:10:42;8.85;;;1.65;;
28988;SDS011;16089;59.952;10.818;2023-11-22T12:13:08;3.72;;;1.17;;
28988;SDS011;16089;59.952;10.818;2023-11-22T12:15:35;6.68;;;1.27;;
28988;SDS011;16089;59.952;10.818;2023-11-22T12:18:02;4.63;;;1.67;;
28988;SDS011;16089;59.952;10.818;2023-11-22T12:20:28;7.78;;;1.70;;
28988;SDS011;16089;59.952;10.818;2023-11-22T12:22:58;7.03;;;1.30;;
28988;SDS011;16089;59.952;10.818;2023-11-22T12:25:26;8.63;;;1.40;;
28988;SDS011;16089;59.952;10.818;2023-11-22T12:27:53;5.50;;;1.13;;
28988;SDS011;16089;59.952;10.818;2023-11-22T12:30:33;8.25;;;1.48;;
28988;SDS011;16089;59.952;10.818;2023-11-22T12:33:02;7.80;;;1.65;;
28988;SDS011;16089;59.952;10.818;2023-11-22T12:35:29;5.97;;;1.33;;
28988;SDS011;16089;59.952;10.818;2023-11-22T12:37:57;5.70;;;1.23;;
28988;SDS011;16089;59.952;10.818;2023-11-22T12:40:24;5.95;;;1.25;;
28988;SDS011;16089;59.952;10.818;2023-11-22T12:42:53;6.32;;;1.13;;
28988;SDS011;16089;59.952;10.818;2023-11-22T12:45:20;4.97;;;1.00;;
28988;SDS011;16089;59.952;10.818;2023-11-22T12:47:48;8.00;;;1.00;;
28988;SDS011;16089;59.952;10.818;2023-11-22T12:50:31;10.40;;;1.27;;
28988;SDS011;16089;59.952;10.818;2023-11-22T12:52:59;6.22;;;1.52;;
28988;SDS011;16089;59.952;10.818;2023-11-22T12:55:25;6.85;;;1.05;;
28988;SDS011;16089;59.952;10.818;2023-11-22T12:57:56;6.88;;;1.20;;
28988;SDS011;16089;59.952;10.818;2023-11-22T13:00:22;7.38;;;1.20;;
28988;SDS011;16089;59.952;10.818;2023-11-22T13:02:49;5.93;;;0.90;;
28988;SDS011;16089;59.952;10.818;2023-11-22T13:05:16;4.05;;;0.88;;
28988;SDS011;16089;59.952;10.818;2023-11-22T13:07:44;5.53;;;1.17;;
28988;SDS011;16089;59.952;10.818;2023-11-22T13:10:11;4.45;;;0.90;;
28988;SDS011;16089;59.952;10.818;2023-11-22T13:12:41;5.75;;;1.20;;
28988;SDS011;16089;59.952;10.818;2023-11-22T13:15:09;8.05;;;1.00;;
28988;SDS011;16089;59.952;10.818;2023-11-22T13:17:36;4.97;;;1.00;;
28988;SDS011;16089;59.952;10.818;2023-11-22T13:20:03;6.50;;;1.05;;
28988;SDS011;16089;59.952;10.818;2023-11-22T13:22:32;9.68;;;1.15;;
28988;SDS011;16089;59.952;10.818;2023-11-22T13:24:59;3.35;;;1.25;;
28988;SDS011;16089;59.952;10.818;2023-11-22T13:27:28;7.28;;;0.90;;
28988;SDS011;16089;59.952;10.818;2023-11-22T13:29:55;10.48;;;1.45;;
28988;SDS011;16089;59.952;10.818;2023-11-22T13:32:23;7.25;;;1.38;;
28988;SDS011;16089;59.952;10.818;2023-11-22T13:34:51;4.68;;;0.93;;
28988;SDS011;16089;59.952;10.818;2023-11-22T13:37:22;6.85;;;0.95;;
28988;SDS011;16089;59.952;10.818;2023-11-22T13:39:48;5.82;;;0.88;;
28988;SDS011;16089;59.952;10.818;2023-11-22T13:42:14;2.30;;;0.70;;
28988;SDS011;16089;59.952;10.818;2023-11-22T13:44:42;7.70;;;1.33;;
28988;SDS011;16089;59.952;10.818;2023-11-22T13:47:09;3.00;;;0.77;;
28988;SDS011;16089;59.952;10.818;2023-11-22T13:49:35;7.97;;;0.95;;
28988;SDS011;16089;59.952;10.818;2023-11-22T13:52:02;5.72;;;1.02;;
28988;SDS011;16089;59.952;10.818;2023-11-22T13:54:28;6.38;;;1.00;;
28988;SDS011;16089;59.952;10.818;2023-11-22T13:56:57;6.65;;;0.95;;
28988;SDS011;16089;59.952;10.818;2023-11-22T13:59:23;5.50;;;0.75;;
28988;SDS011;16089;59.952;10.818;2023-11-22T14:01:52;4.07;;;0.80;;
28988;SDS011;16089;59.952;10.818;2023-11-22T14:04:18;3.70;;;0.80;;
28988;SDS011;16089;59.952;10.818;2023-11-22T14:06:44;3.75;;;0.80;;
28988;SDS011;16089;59.952;10.818;2023-11-22T14:09:11;2.83;;;0.70;;
28988;SDS011;16089;59.952;10.818;2023-11-22T14:11:39;5.28;;;1.00;;
28988;SDS011;16089;59.952;10.818;2023-11-22T14:14:06;2.38;;;0.70;;
28988;SDS011;16089;59.952;10.818;2023-11-22T14:16:34;4.13;;;0.90;;
28988;SDS011;16089;59.952;10.818;2023-11-22T14:19:05;6.28;;;0.70;;
28988;SDS011;16089;59.952;10.818;2023-11-22T14:21:31;2.80;;;0.73;;
28988;SDS011;16089;59.952;10.818;2023-11-22T14:23:59;3.75;;;0.80;;